Flight Track Log - Related Links

Times and Time Zones

All times are in EDT time to prevent confusion due to time zone crossing. See the N376NG flight status page for this flight to view local times or setup timezone preferences in your user account.

Time Position Orientation Groundspeed Altitude Reporting Facility
EDT Latitude Longitude Course Direction KTS MPH feet Rate Location/Type
Wed 01:35:41 PM 46.9561 -96.8106 133° Southeast 149 171 3,500  Level Minneapolis Center
Wed 01:36:43 PM 46.9539 -96.7444 93° East 174 200 5,800 2,032 Climbing Minneapolis Center
Wed 01:37:45 PM 46.9175 -96.6797 129° Southeast 201 231 7,700 2,032 Climbing Minneapolis Center
Wed 01:38:47 PM 46.8772 -96.6183 134° Southeast 201 231 10,000 1,911 Climbing Minneapolis Center
Wed 01:40:00 PM 46.8350 -96.5533 134° Southeast 209 241 12,000 1,985 Climbing Minneapolis Center
Wed 01:41:00 PM 46.6855 -96.3440 133° Southeast  Level Estimated
Wed 01:41:03 PM 46.7861 -96.4783 134° Southeast 212 244 14,500  Level Minneapolis Center
Wed 01:42:04 PM 46.7444 -96.4142 133° Southeast 206 237 16,600 1,707 Climbing Minneapolis Center
Wed 01:43:06 PM 46.7050 -96.3542 134° Southeast 198 228 18,000 1,161 Climbing Minneapolis Center
Wed 01:44:08 PM 46.6744 -96.3069 133° Southeast 192 221 19,000 488 Climbing Minneapolis Center
Wed 01:45:09 PM 46.6211 -96.2242 133° Southeast 234 269 19,000  Level Minneapolis Center
Wed 01:46:11 PM 46.5708 -96.1481 134° Southeast 257 296 19,000  Level Minneapolis Center
Wed 01:47:13 PM 46.5192 -96.0719 135° Southeast 264 304 19,000  Level Minneapolis Center
Wed 01:48:15 PM 46.4692 -95.9944 133° Southeast 264 304 19,000  Level Minneapolis Center
Wed 01:49:28 PM 46.4189 -95.9181 134° Southeast 263 303 19,000  Level Minneapolis Center
Wed 01:50:30 PM 46.3556 -95.8228 134° Southeast 259 298 19,000  Level Minneapolis Center
Wed 01:51:32 PM 46.3050 -95.7486 135° Southeast 260 299 19,000  Level Minneapolis Center
Wed 01:52:34 PM 46.2564 -95.6742 133° Southeast 255 293 19,000  Level Minneapolis Center
Wed 01:53:35 PM 46.2083 -95.6028 134° Southeast 249 287 19,000  Level Minneapolis Center
Wed 01:54:37 PM 46.1517 -95.5189 134° Southeast 245 282 19,000  Level Minneapolis Center
Wed 01:55:39 PM 46.1042 -95.4486 134° Southeast 245 282 19,000  Level Minneapolis Center
Wed 01:56:40 PM 46.0572 -95.3800 135° Southeast 242 278 19,000  Level Minneapolis Center
Wed 01:57:42 PM 46.0092 -95.3069 133° Southeast 249 287 19,000  Level Minneapolis Center
Wed 01:58:43 PM 45.9644 -95.2244 128° Southeast 263 303 19,000  Level Minneapolis Center
Wed 01:59:47 PM 45.9428 -95.1111 105° East 292 336 19,000  Level Minneapolis Center
Wed 02:00:48 PM 45.9253 -94.9731 100° East 300 345 19,000  Level Minneapolis Center
Wed 02:01:50 PM 45.9100 -94.8581 101° East 296 341 19,000  Level Minneapolis Center
Wed 02:02:52 PM 45.8950 -94.7444 101° East 292 336 19,000  Level Minneapolis Center
Wed 02:03:53 PM 45.8806 -94.6286 100° East 295 339 19,000  Level Minneapolis Center
Wed 02:04:55 PM 45.8653 -94.5125 101° East 297 342 19,000  Level Minneapolis Center
Wed 02:05:57 PM 45.8497 -94.3975 101° East 296 341 19,000 -49 Level Minneapolis Center
Wed 02:06:58 PM 45.8342 -94.2822 101° East 296 341 18,900 -927 Descending Minneapolis Center
Wed 02:08:00 PM 45.8144 -94.1372 101° East 305 351 17,100 -1,500 Descending Minneapolis Center
Wed 02:09:14 PM 45.7983 -94.0178 101° East 309 356 15,500 -1,456 Descending Minneapolis Center
Wed 02:10:16 PM 45.7811 -93.8942 101° East 280 322 13,800 -1,500 Descending Minneapolis Center
Wed 02:11:18 PM 45.7675 -93.7919 101° East 264 304 12,400 -1,317 Descending Minneapolis Center
Wed 02:12:19 PM 45.7319 -93.7072 121° Southeast 256 295 11,100 -1,268 Descending Minneapolis Center
Wed 02:13:21 PM 45.6769 -93.6528 145° Southeast 245 282 9,800 -1,452 Descending Minneapolis Center
Wed 02:14:23 PM 45.5967 -93.6158 162° South 254 292 8,100 -1,366 Descending Minneapolis Center
Wed 02:15:24 PM 45.5311 -93.5789 158° South 254 292 7,000 -489 Descending Minneapolis Center
Wed 02:16:38 PM 45.4708 -93.5469 160° South 233 268 7,000  Level Minneapolis Center
Wed 02:17:40 PM 45.4008 -93.5075 158° South 227 261 7,000 -532 Level Minneapolis Center
Wed 02:18:42 PM 45.3394 -93.4753 160° South 234 269 5,900 -1,171 Descending Minneapolis Center
Wed 02:19:43 PM 45.2800 -93.4433 159° South 229 264 4,600 -927 Descending Minneapolis Center
Wed 02:20:45 PM 45.2408 -93.3908 137° Southeast 211 243 4,000 -290 Descending Minneapolis Center
Wed 02:21:47 PM 45.2269 -93.2994 102° East 196 226 4,000  Level Minneapolis Center
Wed 02:22:49 PM 45.2158 -93.2258 102° East 193 222 4,000  Level Minneapolis Center
Wed 02:23:50 PM 45.2033 -93.1522 104° East 193 222 4,000  Level Minneapolis Center
Wed 02:24:52 PM 45.1911 -93.0783 103° East 192 221 4,000  Level Minneapolis Center
Wed 02:25:54 PM 45.1747 -93.0078 108° East 191 220 4,000  Level Minneapolis Center
Wed 02:26:55 PM 45.1322 -92.9608 142° Southeast 192 221 4,000  Level Minneapolis Center
Wed 02:27:57 PM 45.0911 -92.9139 141° Southeast 190 219 4,000  Level Minneapolis Center
Wed 02:28:59 PM 45.0503 -92.8669 141° Southeast 189 217 4,000  Level Minneapolis Center
Wed 02:30:00 PM 44.9975 -92.8086 142° Southeast 200 230 4,000 -341 Level Minneapolis Center
Wed 02:31:02 PM 44.9428 -92.7936 169° South 216 249 3,300 -484 Descending Minneapolis Center
Wed 02:32:04 PM 44.8828 -92.7992 184° South 216 249 3,000 -387 Descending Minneapolis Center
Wed 02:33:06 PM 44.8264 -92.8047 184° South 205 236 2,500 -244 Descending Minneapolis Center
Wed 02:34:07 PM 44.7761 -92.8203 192° South 190 219 2,500  Level Minneapolis Center
Wed 02:35:09 PM 44.7681 -92.8806 259° West 158 182 2,500  Level Minneapolis Center
Wed 02:36:23 PM 44.8014 -92.9392 309° West 140 161 2,500  Level Minneapolis Center
Wed 02:37:25 PM 44.8300 -92.9606 332° Northwest 117 135 2,500  Level Minneapolis Center
Wed 02:38:27 PM 44.8539 -92.9847 324° Northwest 108 124 2,500 -242 Level Minneapolis Center
Wed 02:39:29 PM 44.8750 -93.0056 325° Northwest 95 109 2,000 -439 Descending Minneapolis Center
Wed 02:40:30 PM 44.8942 -93.0222 328° Northwest 83 96 1,600 -341 Descending Minneapolis Center
Wed 02:41:32 PM 44.9097 -93.0369 326° Northwest 68 78 1,300 -290 Descending Minneapolis Center
Wed 02:42:34 PM 44.9269 -93.0542 325° Northwest 67 77 1,000 -290 Descending Minneapolis Center

Login

Don't have an account? Register now (free) for customized features, flight alerts, and more!